CSZ642 RKPC-ZSNJ
Flight info
| Callsign | CSZ642 |
|---|---|
| Flight time | 1h 19m |
| Altitude | 32000 |
| Route | PANSI Y711 PONIK A593 PK R343 ESBAG |
| Aircraft | A321/M-SDE1FGHILORVWXY/HB1 |
Departure
| Time | 2026-04-26 13:12 |
|---|---|
| Airport | Jeju International Airport (RKPC) |
Arrival
| Time | 2026-04-26 14:31 |
|---|---|
| Airport | Nanjing Lukou International Airport (ZSNJ) |
| Time | Latitude | Longitude | Altitude | Speed | Heading |
|---|---|---|---|---|---|
| 2026-04-26 12:56 | 33.50799 | 126.48987 | 127 ft | 0 kts | 329° |
| 2026-04-26 13:06 | 33.50800 | 126.48987 | 127 ft | 0 kts | 329° |
| 2026-04-26 13:06 | 33.50802 | 126.48985 | 127 ft | 1 kts | 329° |
| 2026-04-26 13:07 | 33.50805 | 126.48983 | 127 ft | 1 kts | 329° |
| 2026-04-26 13:07 | 33.50811 | 126.48979 | 127 ft | 2 kts | 329° |
| 2026-04-26 13:07 | 33.50826 | 126.48968 | 127 ft | 3 kts | 328° |
| 2026-04-26 13:07 | 33.50851 | 126.48948 | 127 ft | 5 kts | 327° |
| 2026-04-26 13:08 | 33.50887 | 126.48919 | 127 ft | 7 kts | 325° |
| 2026-04-26 13:08 | 33.50909 | 126.48923 | 127 ft | 10 kts | 54° |
| 2026-04-26 13:08 | 33.50901 | 126.49118 | 127 ft | 25 kts | 53° |
| 2026-04-26 13:08 | 33.51009 | 126.49219 | 127 ft | 20 kts | 63° |
| 2026-04-26 13:09 | 33.51077 | 126.49338 | 127 ft | 19 kts | 52° |
| 2026-04-26 13:09 | 33.51119 | 126.49434 | 127 ft | 19 kts | 65° |
| 2026-04-26 13:09 | 33.51174 | 126.49531 | 127 ft | 19 kts | 51° |
| 2026-04-26 13:09 | 33.51243 | 126.49639 | 127 ft | 19 kts | 58° |
| 2026-04-26 13:10 | 33.51284 | 126.49743 | 127 ft | 18 kts | 61° |
| 2026-04-26 13:10 | 33.51351 | 126.49838 | 127 ft | 10 kts | 354° |
| 2026-04-26 13:10 | 33.51396 | 126.49817 | 127 ft | 11 kts | 323° |
| 2026-04-26 13:10 | 33.51439 | 126.49774 | 127 ft | 15 kts | 315° |
| 2026-04-26 13:11 | 33.51443 | 126.49706 | 127 ft | 15 kts | 251° |
| 2026-04-26 13:11 | 33.51383 | 126.49566 | 127 ft | 51 kts | 237° |
| 2026-04-26 13:11 | 33.51158 | 126.49119 | 127 ft | 109 kts | 240° |
| 2026-04-26 13:11 | 33.50780 | 126.48384 | 128 ft | 158 kts | 240° |
| 2026-04-26 13:12 | 33.50233 | 126.47303 | 169 ft | 198 kts | 239° |
| 2026-04-26 13:12 | 33.49739 | 126.46350 | 839 ft | 188 kts | 238° |
| 2026-04-26 13:12 | 33.49269 | 126.45457 | 1358 ft | 186 kts | 238° |
| 2026-04-26 13:12 | 33.48696 | 126.44368 | 1631 ft | 194 kts | 238° |
| 2026-04-26 13:13 | 33.47892 | 126.42832 | 1915 ft | 208 kts | 238° |
| 2026-04-26 13:13 | 33.47187 | 126.41479 | 2183 ft | 224 kts | 238° |
| 2026-04-26 13:13 | 33.46449 | 126.40054 | 2477 ft | 241 kts | 238° |
| 2026-04-26 13:13 | 33.45477 | 126.38175 | 2897 ft | 261 kts | 238° |
| 2026-04-26 13:14 | 33.44158 | 126.35622 | 3540 ft | 277 kts | 238° |
| 2026-04-26 13:14 | 33.41057 | 126.32369 | 5457 ft | 269 kts | 194° |
| 2026-04-26 13:14 | 33.36926 | 126.31225 | 7057 ft | 275 kts | 192° |
| 2026-04-26 13:14 | 33.35049 | 126.30705 | 7775 ft | 277 kts | 192° |
| 2026-04-26 13:15 | 33.33147 | 126.30164 | 8475 ft | 280 kts | 193° |
| 2026-04-26 13:15 | 33.31248 | 126.29618 | 9148 ft | 282 kts | 193° |
| 2026-04-26 13:15 | 33.29426 | 126.29091 | 9769 ft | 285 kts | 193° |
| 2026-04-26 13:15 | 33.28142 | 126.28719 | 10192 ft | 287 kts | 193° |
| 2026-04-26 13:16 | 33.25730 | 126.28020 | 10657 ft | 302 kts | 193° |
| 2026-04-26 13:16 | 33.23465 | 126.27364 | 10964 ft | 318 kts | 193° |
| 2026-04-26 13:16 | 33.21275 | 126.26730 | 11241 ft | 333 kts | 193° |
| 2026-04-26 13:16 | 33.18966 | 126.26059 | 11513 ft | 349 kts | 193° |
| 2026-04-26 13:17 | 33.14093 | 126.24646 | 12034 ft | 378 kts | 193° |
| 2026-04-26 13:17 | 33.11564 | 126.23915 | 12283 ft | 391 kts | 193° |
| 2026-04-26 13:18 | 33.06190 | 126.22366 | 13223 ft | 405 kts | 194° |
| 2026-04-26 13:18 | 33.03426 | 126.21570 | 13744 ft | 406 kts | 194° |
| 2026-04-26 13:18 | 32.98233 | 126.19764 | 13930 ft | 404 kts | 200° |
| 2026-04-26 13:19 | 32.96010 | 126.18811 | 13936 ft | 405 kts | 201° |
| 2026-04-26 13:19 | 32.92914 | 126.17473 | 14293 ft | 411 kts | 201° |
| 2026-04-26 13:19 | 32.90240 | 126.16319 | 15000 ft | 411 kts | 201° |
| 2026-04-26 13:19 | 32.87568 | 126.15172 | 15598 ft | 413 kts | 201° |
| 2026-04-26 13:20 | 32.85216 | 126.14166 | 16050 ft | 416 kts | 201° |
| 2026-04-26 13:20 | 32.83170 | 126.13292 | 16440 ft | 418 kts | 201° |
| 2026-04-26 13:20 | 32.80441 | 126.12128 | 16960 ft | 421 kts | 201° |
| 2026-04-26 13:20 | 32.77689 | 126.10953 | 17466 ft | 424 kts | 201° |
| 2026-04-26 13:21 | 32.74947 | 126.09782 | 17953 ft | 427 kts | 201° |
| 2026-04-26 13:21 | 32.73096 | 126.08992 | 18271 ft | 429 kts | 201° |
| 2026-04-26 13:21 | 32.69357 | 126.07395 | 18893 ft | 432 kts | 201° |
| 2026-04-26 13:21 | 32.66534 | 126.06190 | 19342 ft | 435 kts | 201° |
| 2026-04-26 13:22 | 32.63674 | 126.04971 | 19783 ft | 438 kts | 201° |
| 2026-04-26 13:22 | 32.60815 | 126.03754 | 20206 ft | 440 kts | 201° |
| 2026-04-26 13:22 | 32.57939 | 126.02532 | 20611 ft | 443 kts | 201° |
| 2026-04-26 13:22 | 32.55038 | 126.01300 | 21007 ft | 446 kts | 201° |
| 2026-04-26 13:23 | 32.52127 | 126.00064 | 21395 ft | 449 kts | 201° |
| 2026-04-26 13:23 | 32.49191 | 125.98818 | 21774 ft | 452 kts | 201° |
| 2026-04-26 13:23 | 32.46245 | 125.97565 | 22153 ft | 454 kts | 201° |
| 2026-04-26 13:23 | 32.43238 | 125.96284 | 22533 ft | 456 kts | 201° |
| 2026-04-26 13:24 | 32.40260 | 125.95017 | 22889 ft | 459 kts | 201° |
| 2026-04-26 13:24 | 32.37265 | 125.93747 | 23242 ft | 461 kts | 201° |
| 2026-04-26 13:24 | 32.34253 | 125.92471 | 23588 ft | 463 kts | 201° |
| 2026-04-26 13:24 | 32.31237 | 125.91197 | 24024 ft | 463 kts | 202° |
| 2026-04-26 13:25 | 32.28228 | 125.89928 | 24525 ft | 461 kts | 202° |
| 2026-04-26 13:25 | 32.25233 | 125.88666 | 25003 ft | 460 kts | 202° |
| 2026-04-26 13:25 | 32.22223 | 125.87399 | 25449 ft | 459 kts | 202° |
| 2026-04-26 13:25 | 32.19239 | 125.86144 | 25867 ft | 458 kts | 202° |
| 2026-04-26 13:26 | 32.16232 | 125.84881 | 26284 ft | 457 kts | 202° |
| 2026-04-26 13:26 | 32.13256 | 125.83633 | 26695 ft | 456 kts | 202° |
| 2026-04-26 13:26 | 32.10286 | 125.82387 | 27091 ft | 455 kts | 202° |
| 2026-04-26 13:26 | 32.07323 | 125.81143 | 27469 ft | 455 kts | 202° |
| 2026-04-26 13:27 | 32.04436 | 125.79708 | 27840 ft | 450 kts | 212° |
| 2026-04-26 13:27 | 32.01975 | 125.77472 | 28221 ft | 444 kts | 228° |
| 2026-04-26 13:27 | 32.00148 | 125.74601 | 28557 ft | 440 kts | 242° |
| 2026-04-26 13:27 | 31.99020 | 125.71290 | 28841 ft | 438 kts | 255° |
| 2026-04-26 13:28 | 31.98241 | 125.67839 | 29181 ft | 438 kts | 256° |
| 2026-04-26 13:28 | 31.97487 | 125.64383 | 29501 ft | 437 kts | 256° |
| 2026-04-26 13:28 | 31.96734 | 125.60936 | 29814 ft | 436 kts | 256° |
| 2026-04-26 13:28 | 31.95978 | 125.57497 | 30127 ft | 436 kts | 256° |
| 2026-04-26 13:29 | 31.95213 | 125.54040 | 30432 ft | 435 kts | 256° |
| 2026-04-26 13:29 | 31.94706 | 125.51763 | 30628 ft | 434 kts | 256° |
| 2026-04-26 13:29 | 31.93688 | 125.47200 | 31018 ft | 433 kts | 256° |
| 2026-04-26 13:29 | 31.92924 | 125.43786 | 31307 ft | 432 kts | 256° |
| 2026-04-26 13:30 | 31.92161 | 125.40386 | 31583 ft | 432 kts | 256° |
| 2026-04-26 13:30 | 31.91398 | 125.36993 | 31852 ft | 431 kts | 256° |
| 2026-04-26 13:30 | 31.90634 | 125.33598 | 31980 ft | 431 kts | 256° |
| 2026-04-26 13:31 | 31.89092 | 125.26795 | 31993 ft | 431 kts | 255° |
| 2026-04-26 13:31 | 31.87538 | 125.20019 | 31995 ft | 431 kts | 256° |
| 2026-04-26 13:32 | 31.85994 | 125.13250 | 31995 ft | 430 kts | 256° |
| 2026-04-26 13:32 | 31.84446 | 125.06455 | 31995 ft | 431 kts | 256° |
| 2026-04-26 13:33 | 31.82904 | 124.99683 | 31995 ft | 430 kts | 256° |
| 2026-04-26 13:33 | 31.81437 | 124.92901 | 31995 ft | 429 kts | 256° |
| 2026-04-26 13:34 | 31.79984 | 124.86131 | 31995 ft | 429 kts | 256° |
| 2026-04-26 13:34 | 31.78518 | 124.79350 | 31995 ft | 428 kts | 256° |
| 2026-04-26 13:35 | 31.77049 | 124.72601 | 31995 ft | 428 kts | 256° |
| 2026-04-26 13:35 | 31.75576 | 124.65858 | 31995 ft | 428 kts | 256° |
| 2026-04-26 13:36 | 31.74093 | 124.59091 | 31995 ft | 428 kts | 256° |
| 2026-04-26 13:36 | 31.72615 | 124.52358 | 31995 ft | 428 kts | 256° |
| 2026-04-26 13:37 | 31.71131 | 124.45618 | 31995 ft | 428 kts | 256° |
| 2026-04-26 13:37 | 31.69636 | 124.38847 | 31995 ft | 429 kts | 256° |
| 2026-04-26 13:38 | 31.68143 | 124.32099 | 31995 ft | 428 kts | 255° |
| 2026-04-26 13:38 | 31.66650 | 124.25353 | 31995 ft | 428 kts | 255° |
| 2026-04-26 13:39 | 31.65152 | 124.18618 | 31995 ft | 429 kts | 255° |
| 2026-04-26 13:39 | 31.63642 | 124.11862 | 31995 ft | 429 kts | 255° |
| 2026-04-26 13:40 | 31.62132 | 124.05131 | 31995 ft | 428 kts | 255° |
| 2026-04-26 13:40 | 31.60626 | 123.98399 | 31995 ft | 429 kts | 256° |
| 2026-04-26 13:41 | 31.59156 | 123.91634 | 31995 ft | 428 kts | 256° |
| 2026-04-26 13:41 | 31.57844 | 123.85617 | 31995 ft | 428 kts | 256° |
| 2026-04-26 13:42 | 31.56367 | 123.78887 | 31995 ft | 429 kts | 256° |
| 2026-04-26 13:42 | 31.54873 | 123.72108 | 31747 ft | 429 kts | 256° |
| 2026-04-26 13:42 | 31.54128 | 123.68730 | 31547 ft | 430 kts | 256° |
| 2026-04-26 13:43 | 31.53382 | 123.65355 | 31348 ft | 430 kts | 255° |
| 2026-04-26 13:43 | 31.52631 | 123.61965 | 31149 ft | 431 kts | 255° |
| 2026-04-26 13:43 | 31.51879 | 123.58576 | 30950 ft | 431 kts | 255° |
| 2026-04-26 13:43 | 31.51126 | 123.55183 | 30750 ft | 432 kts | 255° |
| 2026-04-26 13:44 | 31.50372 | 123.51786 | 30552 ft | 433 kts | 255° |
| 2026-04-26 13:44 | 31.49668 | 123.48343 | 30350 ft | 433 kts | 257° |
| 2026-04-26 13:44 | 31.49024 | 123.44933 | 30152 ft | 434 kts | 257° |
| 2026-04-26 13:45 | 31.47723 | 123.38042 | 30098 ft | 435 kts | 257° |
| 2026-04-26 13:45 | 31.46627 | 123.32259 | 30096 ft | 435 kts | 257° |
| 2026-04-26 13:46 | 31.45095 | 123.24182 | 30095 ft | 435 kts | 257° |
| 2026-04-26 13:46 | 31.43779 | 123.17293 | 30095 ft | 435 kts | 257° |
| 2026-04-26 13:47 | 31.42458 | 123.10418 | 30095 ft | 434 kts | 257° |
| 2026-04-26 13:47 | 31.41134 | 123.03544 | 30095 ft | 434 kts | 256° |
| 2026-04-26 13:48 | 31.39793 | 122.96613 | 30095 ft | 435 kts | 256° |
| 2026-04-26 13:48 | 31.38457 | 122.89746 | 30095 ft | 435 kts | 256° |
| 2026-04-26 13:49 | 31.37114 | 122.82874 | 30095 ft | 435 kts | 256° |
| 2026-04-26 13:49 | 31.35753 | 122.75884 | 30095 ft | 435 kts | 256° |
| 2026-04-26 13:50 | 31.34446 | 122.68965 | 30095 ft | 436 kts | 256° |
| 2026-04-26 13:50 | 31.33134 | 122.62067 | 30095 ft | 435 kts | 256° |
| 2026-04-26 13:51 | 31.31802 | 122.55139 | 30095 ft | 435 kts | 256° |
| 2026-04-26 13:51 | 31.30474 | 122.48263 | 30022 ft | 436 kts | 256° |
| 2026-04-26 13:51 | 31.29799 | 122.44769 | 29865 ft | 436 kts | 256° |
| 2026-04-26 13:52 | 31.29144 | 122.41314 | 29715 ft | 437 kts | 256° |
| 2026-04-26 13:52 | 31.28500 | 122.37853 | 29565 ft | 438 kts | 256° |
| 2026-04-26 13:52 | 31.27851 | 122.34373 | 29416 ft | 438 kts | 256° |
| 2026-04-26 13:52 | 31.27205 | 122.30908 | 29268 ft | 438 kts | 256° |
| 2026-04-26 13:53 | 31.26550 | 122.27412 | 29117 ft | 439 kts | 256° |
| 2026-04-26 13:53 | 31.25900 | 122.23956 | 28960 ft | 431 kts | 256° |
| 2026-04-26 13:53 | 31.25475 | 122.21705 | 28862 ft | 427 kts | 256° |
| 2026-04-26 13:53 | 31.24617 | 122.17181 | 28661 ft | 429 kts | 256° |
| 2026-04-26 13:54 | 31.23968 | 122.13774 | 28511 ft | 430 kts | 256° |
| 2026-04-26 13:54 | 31.23320 | 122.10373 | 28361 ft | 430 kts | 256° |
| 2026-04-26 13:54 | 31.22667 | 122.06955 | 28210 ft | 431 kts | 256° |
| 2026-04-26 13:55 | 31.21351 | 122.00095 | 27910 ft | 432 kts | 255° |
| 2026-04-26 13:55 | 31.20912 | 121.97816 | 27809 ft | 432 kts | 255° |
| 2026-04-26 13:55 | 31.19355 | 121.89769 | 27457 ft | 434 kts | 255° |
| 2026-04-26 13:56 | 31.18686 | 121.86306 | 27309 ft | 434 kts | 255° |
| 2026-04-26 13:56 | 31.18051 | 121.82843 | 27154 ft | 436 kts | 259° |
| 2026-04-26 13:56 | 31.17793 | 121.79271 | 27001 ft | 440 kts | 268° |
| 2026-04-26 13:56 | 31.17998 | 121.75772 | 26852 ft | 443 kts | 276° |
| 2026-04-26 13:57 | 31.18668 | 121.72208 | 26706 ft | 447 kts | 282° |
| 2026-04-26 13:57 | 31.19525 | 121.68685 | 26556 ft | 448 kts | 283° |
| 2026-04-26 13:57 | 31.20409 | 121.65173 | 26406 ft | 448 kts | 284° |
| 2026-04-26 13:57 | 31.21292 | 121.61670 | 26257 ft | 449 kts | 283° |
| 2026-04-26 13:58 | 31.22177 | 121.58129 | 26108 ft | 450 kts | 283° |
| 2026-04-26 13:58 | 31.23057 | 121.54578 | 25959 ft | 450 kts | 283° |
| 2026-04-26 13:58 | 31.23922 | 121.51065 | 25809 ft | 451 kts | 283° |
| 2026-04-26 13:58 | 31.24784 | 121.47543 | 25659 ft | 452 kts | 283° |
| 2026-04-26 13:59 | 31.25654 | 121.43982 | 25509 ft | 453 kts | 283° |
| 2026-04-26 13:59 | 31.26521 | 121.40434 | 25360 ft | 453 kts | 283° |
| 2026-04-26 13:59 | 31.27388 | 121.36890 | 25211 ft | 454 kts | 283° |
| 2026-04-26 14:00 | 31.30410 | 121.26338 | 24763 ft | 457 kts | 287° |
| 2026-04-26 14:00 | 31.31504 | 121.22821 | 24614 ft | 458 kts | 287° |
| 2026-04-26 14:00 | 31.32226 | 121.20497 | 24515 ft | 458 kts | 287° |
| 2026-04-26 14:01 | 31.33681 | 121.15808 | 24314 ft | 460 kts | 287° |
| 2026-04-26 14:01 | 31.34769 | 121.12295 | 24165 ft | 462 kts | 287° |
| 2026-04-26 14:01 | 31.35862 | 121.08758 | 24012 ft | 464 kts | 287° |
| 2026-04-26 14:01 | 31.36958 | 121.05183 | 23860 ft | 466 kts | 287° |
| 2026-04-26 14:02 | 31.38046 | 121.01613 | 23709 ft | 468 kts | 287° |
| 2026-04-26 14:02 | 31.39134 | 120.98032 | 23604 ft | 469 kts | 287° |
| 2026-04-26 14:02 | 31.40226 | 120.94434 | 23598 ft | 471 kts | 287° |
| 2026-04-26 14:02 | 31.41317 | 120.90832 | 23596 ft | 471 kts | 287° |
| 2026-04-26 14:03 | 31.42395 | 120.87264 | 23595 ft | 471 kts | 287° |
| 2026-04-26 14:03 | 31.43499 | 120.83608 | 23595 ft | 471 kts | 287° |
| 2026-04-26 14:03 | 31.44599 | 120.79964 | 23595 ft | 471 kts | 287° |
| 2026-04-26 14:03 | 31.45630 | 120.76538 | 23595 ft | 471 kts | 287° |
| 2026-04-26 14:04 | 31.46750 | 120.72815 | 23553 ft | 472 kts | 287° |
| 2026-04-26 14:04 | 31.47837 | 120.69190 | 23342 ft | 472 kts | 287° |
| 2026-04-26 14:04 | 31.48919 | 120.65580 | 23144 ft | 473 kts | 287° |
| 2026-04-26 14:04 | 31.50015 | 120.61923 | 22943 ft | 474 kts | 287° |
| 2026-04-26 14:05 | 31.51112 | 120.58254 | 22742 ft | 475 kts | 287° |
| 2026-04-26 14:05 | 31.51845 | 120.55804 | 22607 ft | 475 kts | 287° |
| 2026-04-26 14:05 | 31.53288 | 120.50964 | 22339 ft | 476 kts | 287° |
| 2026-04-26 14:05 | 31.54365 | 120.47347 | 22141 ft | 476 kts | 287° |
| 2026-04-26 14:06 | 31.55466 | 120.43638 | 21938 ft | 475 kts | 287° |
| 2026-04-26 14:06 | 31.56554 | 120.39982 | 21738 ft | 474 kts | 287° |
| 2026-04-26 14:06 | 31.57622 | 120.36338 | 21536 ft | 472 kts | 286° |
| 2026-04-26 14:06 | 31.58473 | 120.32665 | 21336 ft | 469 kts | 280° |
| 2026-04-26 14:07 | 31.59040 | 120.28906 | 21131 ft | 467 kts | 275° |
| 2026-04-26 14:07 | 31.59329 | 120.25225 | 20883 ft | 464 kts | 271° |
| 2026-04-26 14:07 | 31.59518 | 120.21470 | 20634 ft | 463 kts | 271° |
| 2026-04-26 14:07 | 31.59685 | 120.17680 | 20301 ft | 461 kts | 271° |
| 2026-04-26 14:08 | 31.59848 | 120.13948 | 19923 ft | 459 kts | 271° |
| 2026-04-26 14:08 | 31.60018 | 120.10228 | 19544 ft | 457 kts | 271° |
| 2026-04-26 14:08 | 31.60191 | 120.06516 | 19171 ft | 455 kts | 271° |
| 2026-04-26 14:08 | 31.60368 | 120.02791 | 18790 ft | 452 kts | 271° |
| 2026-04-26 14:09 | 31.60543 | 119.99107 | 18414 ft | 451 kts | 271° |
| 2026-04-26 14:09 | 31.60716 | 119.95445 | 18038 ft | 449 kts | 272° |
| 2026-04-26 14:09 | 31.60887 | 119.91790 | 17662 ft | 446 kts | 272° |
| 2026-04-26 14:09 | 31.61056 | 119.88165 | 17286 ft | 444 kts | 272° |
| 2026-04-26 14:10 | 31.61222 | 119.84563 | 16910 ft | 442 kts | 272° |
| 2026-04-26 14:10 | 31.61388 | 119.80947 | 16529 ft | 439 kts | 272° |
| 2026-04-26 14:10 | 31.61550 | 119.77377 | 16154 ft | 437 kts | 272° |
| 2026-04-26 14:10 | 31.61710 | 119.73825 | 15779 ft | 434 kts | 272° |
| 2026-04-26 14:11 | 31.62054 | 119.66872 | 15035 ft | 430 kts | 275° |
| 2026-04-26 14:11 | 31.62345 | 119.63356 | 14708 ft | 423 kts | 275° |
| 2026-04-26 14:11 | 31.62639 | 119.60021 | 14336 ft | 414 kts | 276° |
| 2026-04-26 14:12 | 31.62940 | 119.56654 | 13952 ft | 404 kts | 276° |
| 2026-04-26 14:12 | 31.63223 | 119.53441 | 13581 ft | 396 kts | 276° |
| 2026-04-26 14:12 | 31.63503 | 119.50206 | 13200 ft | 390 kts | 276° |
| 2026-04-26 14:12 | 31.63680 | 119.48143 | 12953 ft | 385 kts | 276° |
| 2026-04-26 14:13 | 31.64288 | 119.41029 | 12075 ft | 368 kts | 276° |
| 2026-04-26 14:13 | 31.64538 | 119.38079 | 11749 ft | 360 kts | 276° |
| 2026-04-26 14:13 | 31.64781 | 119.35207 | 11737 ft | 361 kts | 276° |
| 2026-04-26 14:14 | 31.65021 | 119.32362 | 11302 ft | 360 kts | 275° |
| 2026-04-26 14:14 | 31.65269 | 119.29407 | 11025 ft | 350 kts | 275° |
| 2026-04-26 14:14 | 31.65500 | 119.26641 | 10755 ft | 342 kts | 275° |
| 2026-04-26 14:14 | 31.65729 | 119.23904 | 10478 ft | 334 kts | 275° |
| 2026-04-26 14:15 | 31.65952 | 119.21231 | 10204 ft | 327 kts | 275° |
| 2026-04-26 14:15 | 31.66171 | 119.18603 | 9927 ft | 320 kts | 275° |
| 2026-04-26 14:15 | 31.66387 | 119.16022 | 9649 ft | 313 kts | 275° |
| 2026-04-26 14:15 | 31.66594 | 119.13528 | 9375 ft | 307 kts | 275° |
| 2026-04-26 14:16 | 31.66798 | 119.11075 | 9101 ft | 301 kts | 275° |
| 2026-04-26 14:16 | 31.66998 | 119.08657 | 8847 ft | 295 kts | 275° |
| 2026-04-26 14:16 | 31.67192 | 119.06293 | 8689 ft | 285 kts | 275° |
| 2026-04-26 14:16 | 31.67380 | 119.04010 | 8535 ft | 275 kts | 275° |
| 2026-04-26 14:17 | 31.67561 | 119.01802 | 8382 ft | 266 kts | 275° |
| 2026-04-26 14:17 | 31.67737 | 118.99656 | 8214 ft | 259 kts | 275° |
| 2026-04-26 14:17 | 31.67906 | 118.97589 | 7962 ft | 255 kts | 275° |
| 2026-04-26 14:17 | 31.67914 | 118.95517 | 7687 ft | 252 kts | 255° |
| 2026-04-26 14:18 | 31.67149 | 118.93724 | 7431 ft | 245 kts | 225° |
| 2026-04-26 14:18 | 31.65774 | 118.92619 | 7182 ft | 238 kts | 197° |
| 2026-04-26 14:18 | 31.64167 | 118.92398 | 6935 ft | 233 kts | 170° |
| 2026-04-26 14:18 | 31.62673 | 118.93045 | 6691 ft | 231 kts | 144° |
| 2026-04-26 14:19 | 31.61587 | 118.94414 | 6444 ft | 229 kts | 117° |
| 2026-04-26 14:19 | 31.61126 | 118.96177 | 6206 ft | 228 kts | 97° |
| 2026-04-26 14:19 | 31.60980 | 118.98024 | 5964 ft | 228 kts | 95° |
| 2026-04-26 14:19 | 31.60838 | 118.99859 | 5714 ft | 226 kts | 96° |
| 2026-04-26 14:20 | 31.60684 | 119.01686 | 5465 ft | 226 kts | 96° |
| 2026-04-26 14:20 | 31.60524 | 119.03506 | 5215 ft | 225 kts | 96° |
| 2026-04-26 14:20 | 31.60456 | 119.05277 | 4960 ft | 224 kts | 81° |
| 2026-04-26 14:20 | 31.61007 | 119.06995 | 4927 ft | 226 kts | 56° |
| 2026-04-26 14:21 | 31.62155 | 119.08245 | 4897 ft | 229 kts | 26° |
| 2026-04-26 14:21 | 31.63707 | 119.08586 | 4903 ft | 232 kts | 352° |
| 2026-04-26 14:21 | 31.65174 | 119.07853 | 4902 ft | 234 kts | 318° |
| 2026-04-26 14:21 | 31.66057 | 119.06289 | 4903 ft | 234 kts | 284° |
| 2026-04-26 14:22 | 31.66078 | 119.04457 | 4915 ft | 220 kts | 253° |
| 2026-04-26 14:22 | 31.65541 | 119.02780 | 4915 ft | 221 kts | 246° |
| 2026-04-26 14:22 | 31.64950 | 119.01108 | 4901 ft | 220 kts | 246° |
| 2026-04-26 14:22 | 31.64371 | 118.99444 | 4897 ft | 220 kts | 247° |
| 2026-04-26 14:23 | 31.63800 | 118.97763 | 4896 ft | 220 kts | 247° |
| 2026-04-26 14:23 | 31.63238 | 118.96088 | 4896 ft | 220 kts | 248° |
| 2026-04-26 14:23 | 31.62679 | 118.94409 | 4896 ft | 220 kts | 248° |
| 2026-04-26 14:23 | 31.62121 | 118.92727 | 4896 ft | 220 kts | 248° |
| 2026-04-26 14:24 | 31.61564 | 118.91048 | 4896 ft | 220 kts | 248° |
| 2026-04-26 14:24 | 31.61011 | 118.89378 | 4877 ft | 221 kts | 248° |
| 2026-04-26 14:24 | 31.60457 | 118.87716 | 4672 ft | 218 kts | 248° |
| 2026-04-26 14:24 | 31.60095 | 118.86626 | 4526 ft | 207 kts | 248° |
| 2026-04-26 14:25 | 31.59423 | 118.84604 | 4241 ft | 195 kts | 248° |
| 2026-04-26 14:25 | 31.58928 | 118.83115 | 4047 ft | 196 kts | 248° |
| 2026-04-26 14:25 | 31.58438 | 118.81643 | 3904 ft | 194 kts | 248° |
| 2026-04-26 14:25 | 31.57942 | 118.80153 | 3812 ft | 196 kts | 248° |
| 2026-04-26 14:26 | 31.57448 | 118.78670 | 3654 ft | 195 kts | 248° |
| 2026-04-26 14:26 | 31.56958 | 118.77192 | 3480 ft | 194 kts | 249° |
| 2026-04-26 14:26 | 31.56788 | 118.75634 | 3289 ft | 195 kts | 278° |
| 2026-04-26 14:26 | 31.57322 | 118.74191 | 3123 ft | 195 kts | 310° |
| 2026-04-26 14:27 | 31.58368 | 118.73209 | 2974 ft | 194 kts | 330° |
| 2026-04-26 14:27 | 31.59531 | 118.72406 | 2829 ft | 194 kts | 330° |
| 2026-04-26 14:27 | 31.60684 | 118.71601 | 2682 ft | 194 kts | 330° |
| 2026-04-26 14:27 | 31.61844 | 118.70797 | 2531 ft | 193 kts | 335° |
| 2026-04-26 14:28 | 31.63139 | 118.70626 | 2356 ft | 189 kts | 17° |
| 2026-04-26 14:28 | 31.64197 | 118.71455 | 2315 ft | 186 kts | 53° |
| 2026-04-26 14:28 | 31.64909 | 118.72717 | 2308 ft | 186 kts | 60° |
| 2026-04-26 14:28 | 31.65579 | 118.73993 | 2169 ft | 184 kts | 60° |
| 2026-04-26 14:29 | 31.66227 | 118.75220 | 1921 ft | 173 kts | 60° |
| 2026-04-26 14:29 | 31.66844 | 118.76377 | 1712 ft | 161 kts | 59° |
| 2026-04-26 14:29 | 31.67430 | 118.77473 | 1504 ft | 159 kts | 60° |
| 2026-04-26 14:29 | 31.68017 | 118.78575 | 1300 ft | 159 kts | 60° |
| 2026-04-26 14:30 | 31.68599 | 118.79668 | 1093 ft | 158 kts | 60° |
| 2026-04-26 14:30 | 31.69181 | 118.80757 | 885 ft | 156 kts | 60° |
| 2026-04-26 14:30 | 31.69738 | 118.81794 | 676 ft | 148 kts | 60° |
| 2026-04-26 14:30 | 31.70285 | 118.82822 | 487 ft | 149 kts | 60° |
| 2026-04-26 14:31 | 31.70836 | 118.83841 | 293 ft | 149 kts | 59° |
| 2026-04-26 14:31 | 31.71373 | 118.84865 | 110 ft | 148 kts | 60° |
| 2026-04-26 14:31 | 31.71889 | 118.85845 | 55 ft | 121 kts | 59° |
| 2026-04-26 14:31 | 31.72182 | 118.86291 | 55 ft | 37 kts | 27° |
| 2026-04-26 14:32 | 31.72354 | 118.86409 | 55 ft | 23 kts | 33° |
| 2026-04-26 14:32 | 31.72462 | 118.86539 | 55 ft | 22 kts | 51° |
| 2026-04-26 14:32 | 31.72554 | 118.86638 | 55 ft | 11 kts | 347° |
| 2026-04-26 14:32 | 31.72601 | 118.86617 | 55 ft | 11 kts | 335° |
| 2026-04-26 14:33 | 31.72691 | 118.86607 | 55 ft | 10 kts | 39° |
| 2026-04-26 14:33 | 31.72741 | 118.86681 | 55 ft | 12 kts | 55° |
| 2026-04-26 14:33 | 31.72802 | 118.86728 | 55 ft | 9 kts | 347° |
| 2026-04-26 14:33 | 31.72846 | 118.86696 | 55 ft | 0 kts | 328° |